Aurora, SD (57002)

2:35 PM CST on February 14, 2016 (GMT -0600)
Aurora | | Change Station
CLOSE
Current Station
Personal Weather Station
Location: Aurora, SD
Elevation: 1634 ft
Nearby Weather Stations

Elev 1634 ft 44.29 °N, 96.68 °W | Updated 10 seconds ago

Overcast
Overcast
21.6 °F
Feels Like 22 °F
N
2.5
Wind Variable Wind from South
Gusts 4.9 mph

Today
High -- | Low -- °F
--% Chance of Precip.
Yesterday
High -- | Low -- °F
Precip. -- in
Pressure 29.91 in
Visibility 10.0 miles
Clouds Mostly Cloudy 1100 ft
Overcast 2400 ft
Windchill 22 °F
Dew Point 10 °F
Humidity 61%
Rainfall 0.00 in
Snow Depth Not available.
7:28 AM 5:54 PM
Waxing Crescent, 45% visible
METAR KBKX 141956Z AUTO 19009KT 10SM BKN011 OVC024 M07/M10 A2978 RMK AO2 SNE08 SLP127 P0000 T10671100 FZRANO
Pressure 29.91 in
Visibility 10.0 miles
Clouds Mostly Cloudy 1100 ft
Overcast 2400 ft
Windchill 22 °F
Dew Point 10 °F
Humidity 61%
Rainfall 0.00 in
Snow Depth Not available.
7:28 AM 5:54 PM
Waxing Crescent, 45% visible
METAR KBKX 141956Z AUTO 19009KT 10SM BKN011 OVC024 M07/M10 A2978 RMK AO2 SNE08 SLP127 P0000 T10671100 FZRANO

10-Day Weather Forecast

Almanac

Astronomy

Feb. 14, 2016 Rise Set
Actual Time
Civil Twilight
Nautical Twilight
Astronomical Twilight
Moon
Length of Visible Light
Length of Day
Tomorrow will be .
, % of the Moon is Illuminated

Today's Extremes

State Highs State Lows

Community

WunderPhotos

Upload Photos

1,892,886 photos uploaded!

WunderBlog® & News

Nearby

Air Quality

  Air Quality AQ Index Pollutant
Not available.

Snow Depth

Station Depth Elevation

Earthquake Activity

City Distance Mag. Time & Date
Minimum magnitude displayed is 2.5.

Coastal Water Temperatures

Place Temperature

Stations

Nearby Weather Stations

Station Location Temp. Windchill Dew Point Humidity Wind Precip. Elev Updated Type
                   

Watches & Warnings

There are currently no watches in effect.